sensor_id;sensor_type;location;lat;lon;timestamp;temperature;humidity
43673;DHT22;41723;49.326;8.430;2024-01-15T00:00:16;-1.40;99.90
43673;DHT22;41723;49.326;8.430;2024-01-15T00:02:42;-1.40;99.90
43673;DHT22;41723;49.326;8.430;2024-01-15T00:05:08;-1.50;99.90
43673;DHT22;41723;49.326;8.430;2024-01-15T00:07:33;-1.40;99.90
43673;DHT22;41723;49.326;8.430;2024-01-15T00:09:59;-1.40;99.90
43673;DHT22;41723;49.326;8.430;2024-01-15T00:12:24;-1.40;99.90
43673;DHT22;41723;49.326;8.430;2024-01-15T00:14:50;-1.40;99.90
43673;DHT22;41723;49.326;8.430;2024-01-15T00:17:15;-1.40;99.90
43673;DHT22;41723;49.326;8.430;2024-01-15T00:19:41;-1.30;99.90
43673;DHT22;41723;49.326;8.430;2024-01-15T00:22:06;-1.30;99.90
43673;DHT22;41723;49.326;8.430;2024-01-15T00:24:32;-1.30;99.90
43673;DHT22;41723;49.326;8.430;2024-01-15T00:26:58;-1.40;99.90
43673;DHT22;41723;49.326;8.430;2024-01-15T00:29:23;-1.30;99.90
43673;DHT22;41723;49.326;8.430;2024-01-15T00:31:49;-1.40;99.90
43673;DHT22;41723;49.326;8.430;2024-01-15T00:34:14;-1.40;99.90
43673;DHT22;41723;49.326;8.430;2024-01-15T00:36:40;-1.40;99.90
43673;DHT22;41723;49.326;8.430;2024-01-15T00:39:06;-1.40;99.90
43673;DHT22;41723;49.326;8.430;2024-01-15T00:41:31;-1.50;99.90
43673;DHT22;41723;49.326;8.430;2024-01-15T00:43:57;-1.40;99.90
43673;DHT22;41723;49.326;8.430;2024-01-15T00:46:22;-1.40;99.90
43673;DHT22;41723;49.326;8.430;2024-01-15T00:48:48;-1.30;99.90
43673;DHT22;41723;49.326;8.430;2024-01-15T00:51:14;-1.30;99.90
43673;DHT22;41723;49.326;8.430;2024-01-15T00:53:39;-1.30;99.90
43673;DHT22;41723;49.326;8.430;2024-01-15T00:56:05;-1.30;99.90
43673;DHT22;41723;49.326;8.430;2024-01-15T00:58:30;-1.20;99.90
43673;DHT22;41723;49.326;8.430;2024-01-15T01:00:56;-1.20;99.90
43673;DHT22;41723;49.326;8.430;2024-01-15T01:03:21;-1.20;99.90
43673;DHT22;41723;49.326;8.430;2024-01-15T01:05:50;-1.10;99.90
43673;DHT22;41723;49.326;8.430;2024-01-15T01:08:16;-1.10;99.90
43673;DHT22;41723;49.326;8.430;2024-01-15T01:10:42;-1.10;99.90
43673;DHT22;41723;49.326;8.430;2024-01-15T01:13:10;-1.00;99.90
43673;DHT22;41723;49.326;8.430;2024-01-15T01:15:36;-1.00;99.90
43673;DHT22;41723;49.326;8.430;2024-01-15T01:18:02;-1.00;99.90
43673;DHT22;41723;49.326;8.430;2024-01-15T01:20:28;-1.00;99.90
43673;DHT22;41723;49.326;8.430;2024-01-15T01:22:53;-0.90;99.90
43673;DHT22;41723;49.326;8.430;2024-01-15T01:25:19;-1.00;99.90
43673;DHT22;41723;49.326;8.430;2024-01-15T01:27:45;-1.00;99.90
43673;DHT22;41723;49.326;8.430;2024-01-15T01:30:10;-1.00;99.90
43673;DHT22;41723;49.326;8.430;2024-01-15T01:32:36;-1.00;99.90
43673;DHT22;41723;49.326;8.430;2024-01-15T01:35:01;-1.00;99.90
43673;DHT22;41723;49.326;8.430;2024-01-15T01:37:27;-1.00;99.90
43673;DHT22;41723;49.326;8.430;2024-01-15T01:39:53;-1.10;99.90
43673;DHT22;41723;49.326;8.430;2024-01-15T01:42:18;-1.10;99.90
43673;DHT22;41723;49.326;8.430;2024-01-15T01:44:44;-1.00;99.90
43673;DHT22;41723;49.326;8.430;2024-01-15T01:47:09;-1.00;99.90
43673;DHT22;41723;49.326;8.430;2024-01-15T01:49:36;-1.00;99.90
43673;DHT22;41723;49.326;8.430;2024-01-15T01:52:02;-0.90;99.90
43673;DHT22;41723;49.326;8.430;2024-01-15T01:54:29;-1.00;99.90
43673;DHT22;41723;49.326;8.430;2024-01-15T01:56:54;-1.00;99.90
43673;DHT22;41723;49.326;8.430;2024-01-15T01:59:20;-0.90;99.90
43673;DHT22;41723;49.326;8.430;2024-01-15T02:01:46;-1.00;99.90
43673;DHT22;41723;49.326;8.430;2024-01-15T02:04:12;-1.00;99.90
43673;DHT22;41723;49.326;8.430;2024-01-15T02:06:38;-1.00;99.90
43673;DHT22;41723;49.326;8.430;2024-01-15T02:09:04;-0.90;99.90
43673;DHT22;41723;49.326;8.430;2024-01-15T02:11:30;-0.90;99.90
43673;DHT22;41723;49.326;8.430;2024-01-15T02:13:56;-0.80;99.90
43673;DHT22;41723;49.326;8.430;2024-01-15T02:16:22;-0.80;99.90
43673;DHT22;41723;49.326;8.430;2024-01-15T02:18:47;-0.70;99.90
43673;DHT22;41723;49.326;8.430;2024-01-15T02:21:13;-0.80;99.90
43673;DHT22;41723;49.326;8.430;2024-01-15T02:23:38;-0.80;99.90
43673;DHT22;41723;49.326;8.430;2024-01-15T02:26:04;-0.80;99.90
43673;DHT22;41723;49.326;8.430;2024-01-15T02:28:30;-0.80;99.90
43673;DHT22;41723;49.326;8.430;2024-01-15T02:30:57;-0.70;99.90
43673;DHT22;41723;49.326;8.430;2024-01-15T02:33:23;-0.70;99.90
43673;DHT22;41723;49.326;8.430;2024-01-15T02:35:49;-0.70;99.90
43673;DHT22;41723;49.326;8.430;2024-01-15T02:38:15;-0.70;99.90
43673;DHT22;41723;49.326;8.430;2024-01-15T02:40:41;-0.60;99.90
43673;DHT22;41723;49.326;8.430;2024-01-15T02:43:07;-0.70;99.90
43673;DHT22;41723;49.326;8.430;2024-01-15T02:45:32;-0.70;99.90
43673;DHT22;41723;49.326;8.430;2024-01-15T02:47:58;-0.70;99.90
43673;DHT22;41723;49.326;8.430;2024-01-15T02:50:23;-0.70;99.90
43673;DHT22;41723;49.326;8.430;2024-01-15T02:52:49;-0.80;99.90
43673;DHT22;41723;49.326;8.430;2024-01-15T02:55:15;-0.70;99.90
43673;DHT22;41723;49.326;8.430;2024-01-15T02:57:40;-0.80;99.90
43673;DHT22;41723;49.326;8.430;2024-01-15T03:00:06;-0.80;99.90
43673;DHT22;41723;49.326;8.430;2024-01-15T03:02:32;-0.80;99.90
43673;DHT22;41723;49.326;8.430;2024-01-15T03:04:58;-0.70;99.90
43673;DHT22;41723;49.326;8.430;2024-01-15T03:07:24;-0.70;99.90
43673;DHT22;41723;49.326;8.430;2024-01-15T03:09:49;-0.80;99.90
43673;DHT22;41723;49.326;8.430;2024-01-15T03:12:15;-0.70;99.90
43673;DHT22;41723;49.326;8.430;2024-01-15T03:14:41;-0.80;99.90
43673;DHT22;41723;49.326;8.430;2024-01-15T03:17:06;-0.90;99.90
43673;DHT22;41723;49.326;8.430;2024-01-15T03:19:34;-0.90;99.90
43673;DHT22;41723;49.326;8.430;2024-01-15T03:22:00;-0.90;99.90
43673;DHT22;41723;49.326;8.430;2024-01-15T03:24:28;-0.90;99.90
43673;DHT22;41723;49.326;8.430;2024-01-15T03:26:53;-0.80;99.90
43673;DHT22;41723;49.326;8.430;2024-01-15T03:29:19;-0.80;99.90
43673;DHT22;41723;49.326;8.430;2024-01-15T03:31:44;-0.70;99.90
43673;DHT22;41723;49.326;8.430;2024-01-15T03:34:10;-0.70;99.90
43673;DHT22;41723;49.326;8.430;2024-01-15T03:36:35;-0.70;99.90
43673;DHT22;41723;49.326;8.430;2024-01-15T03:39:01;-0.70;99.90
43673;DHT22;41723;49.326;8.430;2024-01-15T03:41:27;-0.60;99.90
43673;DHT22;41723;49.326;8.430;2024-01-15T03:43:52;-0.50;99.90
43673;DHT22;41723;49.326;8.430;2024-01-15T03:46:18;-0.60;99.90
43673;DHT22;41723;49.326;8.430;2024-01-15T03:48:43;-0.60;99.90
43673;DHT22;41723;49.326;8.430;2024-01-15T03:51:09;-0.70;99.90
43673;DHT22;41723;49.326;8.430;2024-01-15T03:53:34;-0.70;99.90
43673;DHT22;41723;49.326;8.430;2024-01-15T03:56:00;-0.80;99.90
43673;DHT22;41723;49.326;8.430;2024-01-15T03:58:26;-0.70;99.90
43673;DHT22;41723;49.326;8.430;2024-01-15T04:00:51;-0.60;99.90
43673;DHT22;41723;49.326;8.430;2024-01-15T04:03:17;-0.50;99.90
43673;DHT22;41723;49.326;8.430;2024-01-15T04:05:42;-0.50;99.90
43673;DHT22;41723;49.326;8.430;2024-01-15T04:08:08;-0.50;99.90
43673;DHT22;41723;49.326;8.430;2024-01-15T04:10:34;-0.50;99.90
43673;DHT22;41723;49.326;8.430;2024-01-15T04:12:59;-0.50;99.90
43673;DHT22;41723;49.326;8.430;2024-01-15T04:15:27;-0.60;99.90
43673;DHT22;41723;49.326;8.430;2024-01-15T04:17:52;-0.60;99.90
43673;DHT22;41723;49.326;8.430;2024-01-15T04:20:18;-0.60;99.90
43673;DHT22;41723;49.326;8.430;2024-01-15T04:22:44;-0.50;99.90
43673;DHT22;41723;49.326;8.430;2024-01-15T04:25:09;-0.60;99.90
43673;DHT22;41723;49.326;8.430;2024-01-15T04:27:35;-0.60;99.90
43673;DHT22;41723;49.326;8.430;2024-01-15T04:30:00;-0.60;99.90
43673;DHT22;41723;49.326;8.430;2024-01-15T04:32:26;-0.70;99.90
43673;DHT22;41723;49.326;8.430;2024-01-15T04:34:52;-0.70;99.90
43673;DHT22;41723;49.326;8.430;2024-01-15T04:37:17;-0.60;99.90
43673;DHT22;41723;49.326;8.430;2024-01-15T04:39:43;-0.70;99.90
43673;DHT22;41723;49.326;8.430;2024-01-15T04:42:08;-0.60;99.90
43673;DHT22;41723;49.326;8.430;2024-01-15T04:44:34;-0.60;99.90
43673;DHT22;41723;49.326;8.430;2024-01-15T04:46:59;-0.60;99.90
43673;DHT22;41723;49.326;8.430;2024-01-15T04:49:25;-0.50;99.90
43673;DHT22;41723;49.326;8.430;2024-01-15T04:51:54;-0.40;99.90
43673;DHT22;41723;49.326;8.430;2024-01-15T04:54:20;-0.40;99.90
43673;DHT22;41723;49.326;8.430;2024-01-15T04:56:46;-0.30;99.90
43673;DHT22;41723;49.326;8.430;2024-01-15T04:59:12;-0.30;99.90
43673;DHT22;41723;49.326;8.430;2024-01-15T05:01:38;-0.20;99.90
43673;DHT22;41723;49.326;8.430;2024-01-15T05:04:03;-0.10;99.90
43673;DHT22;41723;49.326;8.430;2024-01-15T05:06:29;-0.20;99.90
43673;DHT22;41723;49.326;8.430;2024-01-15T05:08:55;-0.20;99.90
43673;DHT22;41723;49.326;8.430;2024-01-15T05:11:20;-0.10;99.90
43673;DHT22;41723;49.326;8.430;2024-01-15T05:13:46;-0.20;99.90
43673;DHT22;41723;49.326;8.430;2024-01-15T05:16:12;-0.20;99.90
43673;DHT22;41723;49.326;8.430;2024-01-15T05:18:37;-0.30;99.90
43673;DHT22;41723;49.326;8.430;2024-01-15T05:21:03;-0.20;99.90
43673;DHT22;41723;49.326;8.430;2024-01-15T05:23:30;-0.30;99.90
43673;DHT22;41723;49.326;8.430;2024-01-15T05:25:56;-0.20;99.90
43673;DHT22;41723;49.326;8.430;2024-01-15T05:28:22;-0.20;99.90
43673;DHT22;41723;49.326;8.430;2024-01-15T05:30:48;-0.20;99.90
43673;DHT22;41723;49.326;8.430;2024-01-15T05:33:13;-0.20;99.90
43673;DHT22;41723;49.326;8.430;2024-01-15T05:35:39;-0.30;99.90
43673;DHT22;41723;49.326;8.430;2024-01-15T05:38:04;-0.30;99.90
43673;DHT22;41723;49.326;8.430;2024-01-15T05:40:30;-0.20;99.90
43673;DHT22;41723;49.326;8.430;2024-01-15T05:42:55;-0.20;99.90
43673;DHT22;41723;49.326;8.430;2024-01-15T05:45:21;-0.20;99.90
43673;DHT22;41723;49.326;8.430;2024-01-15T05:47:47;-0.30;99.90
43673;DHT22;41723;49.326;8.430;2024-01-15T05:50:12;-0.30;99.90
43673;DHT22;41723;49.326;8.430;2024-01-15T05:52:38;-0.30;99.90
43673;DHT22;41723;49.326;8.430;2024-01-15T05:55:04;-0.30;99.90
43673;DHT22;41723;49.326;8.430;2024-01-15T05:57:30;-0.30;99.90
43673;DHT22;41723;49.326;8.430;2024-01-15T05:59:56;-0.30;99.90
43673;DHT22;41723;49.326;8.430;2024-01-15T06:02:21;-0.30;99.90
43673;DHT22;41723;49.326;8.430;2024-01-15T06:04:47;-0.30;99.90
43673;DHT22;41723;49.326;8.430;2024-01-15T06:07:12;-0.30;99.90
43673;DHT22;41723;49.326;8.430;2024-01-15T06:09:38;-0.20;99.90
43673;DHT22;41723;49.326;8.430;2024-01-15T06:12:04;-0.20;99.90
43673;DHT22;41723;49.326;8.430;2024-01-15T06:14:30;-0.10;99.90
43673;DHT22;41723;49.326;8.430;2024-01-15T06:16:55;-0.10;99.90
43673;DHT22;41723;49.326;8.430;2024-01-15T06:19:21;0.00;99.90
43673;DHT22;41723;49.326;8.430;2024-01-15T06:21:47;0.00;99.90
43673;DHT22;41723;49.326;8.430;2024-01-15T06:24:12;0.00;99.90
43673;DHT22;41723;49.326;8.430;2024-01-15T06:26:39;0.00;99.90
43673;DHT22;41723;49.326;8.430;2024-01-15T06:29:04;0.00;99.90
43673;DHT22;41723;49.326;8.430;2024-01-15T06:31:30;0.00;99.90
43673;DHT22;41723;49.326;8.430;2024-01-15T06:33:55;0.20;99.90
43673;DHT22;41723;49.326;8.430;2024-01-15T06:36:21;0.30;99.90
43673;DHT22;41723;49.326;8.430;2024-01-15T06:38:47;0.40;99.90
43673;DHT22;41723;49.326;8.430;2024-01-15T06:41:12;0.40;99.90
43673;DHT22;41723;49.326;8.430;2024-01-15T06:43:38;0.50;99.90
43673;DHT22;41723;49.326;8.430;2024-01-15T06:46:04;0.50;99.90
43673;DHT22;41723;49.326;8.430;2024-01-15T06:48:29;0.40;99.90
43673;DHT22;41723;49.326;8.430;2024-01-15T06:50:55;0.50;99.90
43673;DHT22;41723;49.326;8.430;2024-01-15T06:53:20;0.60;99.90
43673;DHT22;41723;49.326;8.430;2024-01-15T06:55:46;0.50;99.90
43673;DHT22;41723;49.326;8.430;2024-01-15T06:58:12;0.50;99.90
43673;DHT22;41723;49.326;8.430;2024-01-15T07:00:37;0.50;99.90
43673;DHT22;41723;49.326;8.430;2024-01-15T07:03:03;0.40;99.90
43673;DHT22;41723;49.326;8.430;2024-01-15T07:05:29;0.40;99.90
43673;DHT22;41723;49.326;8.430;2024-01-15T07:07:56;0.50;99.90
43673;DHT22;41723;49.326;8.430;2024-01-15T07:10:21;0.40;99.90
43673;DHT22;41723;49.326;8.430;2024-01-15T07:12:47;0.40;99.90
43673;DHT22;41723;49.326;8.430;2024-01-15T07:15:12;0.40;99.90
43673;DHT22;41723;49.326;8.430;2024-01-15T07:17:38;0.50;99.90
43673;DHT22;41723;49.326;8.430;2024-01-15T07:20:08;0.50;99.90
43673;DHT22;41723;49.326;8.430;2024-01-15T07:22:35;0.40;99.90
43673;DHT22;41723;49.326;8.430;2024-01-15T07:25:00;0.40;99.90
43673;DHT22;41723;49.326;8.430;2024-01-15T07:27:26;0.40;99.90
43673;DHT22;41723;49.326;8.430;2024-01-15T07:29:52;0.50;99.90
43673;DHT22;41723;49.326;8.430;2024-01-15T07:32:17;0.40;99.90
43673;DHT22;41723;49.326;8.430;2024-01-15T07:34:43;0.40;99.90
43673;DHT22;41723;49.326;8.430;2024-01-15T07:37:08;0.40;99.90
43673;DHT22;41723;49.326;8.430;2024-01-15T07:39:34;0.30;99.90
43673;DHT22;41723;49.326;8.430;2024-01-15T07:42:00;0.40;99.90
43673;DHT22;41723;49.326;8.430;2024-01-15T07:44:26;0.30;99.90
43673;DHT22;41723;49.326;8.430;2024-01-15T07:46:51;0.40;99.90
43673;DHT22;41723;49.326;8.430;2024-01-15T07:49:17;0.30;99.90
43673;DHT22;41723;49.326;8.430;2024-01-15T07:51:45;0.30;99.90
43673;DHT22;41723;49.326;8.430;2024-01-15T07:54:13;0.40;99.90
43673;DHT22;41723;49.326;8.430;2024-01-15T07:57:00;0.40;99.90
43673;DHT22;41723;49.326;8.430;2024-01-15T07:59:25;0.50;99.90
43673;DHT22;41723;49.326;8.430;2024-01-15T08:01:51;0.50;99.90
43673;DHT22;41723;49.326;8.430;2024-01-15T08:04:17;0.50;99.90
43673;DHT22;41723;49.326;8.430;2024-01-15T08:06:42;0.40;99.90
43673;DHT22;41723;49.326;8.430;2024-01-15T08:09:08;0.50;99.90
43673;DHT22;41723;49.326;8.430;2024-01-15T08:11:34;0.50;99.90
43673;DHT22;41723;49.326;8.430;2024-01-15T08:13:59;0.50;99.90
43673;DHT22;41723;49.326;8.430;2024-01-15T08:16:25;0.60;99.90
43673;DHT22;41723;49.326;8.430;2024-01-15T08:18:53;0.50;99.90
43673;DHT22;41723;49.326;8.430;2024-01-15T08:21:18;0.50;99.90
43673;DHT22;41723;49.326;8.430;2024-01-15T08:23:44;0.50;99.90
43673;DHT22;41723;49.326;8.430;2024-01-15T08:26:10;0.50;99.90
43673;DHT22;41723;49.326;8.430;2024-01-15T08:28:36;0.50;99.90
43673;DHT22;41723;49.326;8.430;2024-01-15T08:31:01;0.50;99.90
43673;DHT22;41723;49.326;8.430;2024-01-15T08:33:28;0.60;99.90
43673;DHT22;41723;49.326;8.430;2024-01-15T08:35:54;0.60;99.90
43673;DHT22;41723;49.326;8.430;2024-01-15T08:38:20;0.60;99.90
43673;DHT22;41723;49.326;8.430;2024-01-15T08:40:45;0.60;99.90
43673;DHT22;41723;49.326;8.430;2024-01-15T08:43:11;0.70;99.90
43673;DHT22;41723;49.326;8.430;2024-01-15T08:45:37;0.70;99.90
43673;DHT22;41723;49.326;8.430;2024-01-15T08:48:03;0.70;99.90
43673;DHT22;41723;49.326;8.430;2024-01-15T08:50:29;0.70;99.90
43673;DHT22;41723;49.326;8.430;2024-01-15T08:52:55;0.80;99.90
43673;DHT22;41723;49.326;8.430;2024-01-15T08:55:21;0.70;99.90
43673;DHT22;41723;49.326;8.430;2024-01-15T08:57:48;0.70;99.90
43673;DHT22;41723;49.326;8.430;2024-01-15T09:00:13;0.60;99.90
43673;DHT22;41723;49.326;8.430;2024-01-15T09:02:39;0.70;99.90
43673;DHT22;41723;49.326;8.430;2024-01-15T09:05:05;0.70;99.90
43673;DHT22;41723;49.326;8.430;2024-01-15T09:07:31;0.80;99.90
43673;DHT22;41723;49.326;8.430;2024-01-15T09:09:57;0.70;99.90
43673;DHT22;41723;49.326;8.430;2024-01-15T09:12:25;0.80;99.90
43673;DHT22;41723;49.326;8.430;2024-01-15T09:14:51;0.80;99.90
43673;DHT22;41723;49.326;8.430;2024-01-15T09:17:17;0.90;99.90
43673;DHT22;41723;49.326;8.430;2024-01-15T09:19:43;0.90;99.90
43673;DHT22;41723;49.326;8.430;2024-01-15T09:22:09;0.90;99.90
43673;DHT22;41723;49.326;8.430;2024-01-15T09:24:35;0.90;99.90
43673;DHT22;41723;49.326;8.430;2024-01-15T09:27:00;1.00;99.90
43673;DHT22;41723;49.326;8.430;2024-01-15T09:29:26;1.00;99.90
43673;DHT22;41723;49.326;8.430;2024-01-15T09:31:52;1.00;99.90
43673;DHT22;41723;49.326;8.430;2024-01-15T09:34:17;1.00;99.90
43673;DHT22;41723;49.326;8.430;2024-01-15T09:36:43;1.00;99.90
43673;DHT22;41723;49.326;8.430;2024-01-15T09:39:09;1.00;99.90
43673;DHT22;41723;49.326;8.430;2024-01-15T09:41:36;0.90;99.90
43673;DHT22;41723;49.326;8.430;2024-01-15T09:44:05;1.00;99.90
43673;DHT22;41723;49.326;8.430;2024-01-15T09:46:33;1.00;99.90
43673;DHT22;41723;49.326;8.430;2024-01-15T09:48:59;0.90;99.90
43673;DHT22;41723;49.326;8.430;2024-01-15T09:51:25;1.00;99.90
43673;DHT22;41723;49.326;8.430;2024-01-15T09:53:50;1.00;99.90
43673;DHT22;41723;49.326;8.430;2024-01-15T09:56:17;1.00;99.90
43673;DHT22;41723;49.326;8.430;2024-01-15T09:58:42;1.00;99.90
43673;DHT22;41723;49.326;8.430;2024-01-15T10:01:08;1.00;99.90
43673;DHT22;41723;49.326;8.430;2024-01-15T10:03:35;1.00;99.90
43673;DHT22;41723;49.326;8.430;2024-01-15T10:06:00;1.00;99.90
43673;DHT22;41723;49.326;8.430;2024-01-15T10:08:27;1.00;99.90
43673;DHT22;41723;49.326;8.430;2024-01-15T10:10:53;0.90;99.90
43673;DHT22;41723;49.326;8.430;2024-01-15T10:13:19;0.80;99.90
43673;DHT22;41723;49.326;8.430;2024-01-15T10:15:47;0.80;99.90
43673;DHT22;41723;49.326;8.430;2024-01-15T10:18:13;0.70;99.90
43673;DHT22;41723;49.326;8.430;2024-01-15T10:20:39;0.80;99.90
43673;DHT22;41723;49.326;8.430;2024-01-15T10:23:05;0.60;99.90
43673;DHT22;41723;49.326;8.430;2024-01-15T10:25:30;0.60;99.90
43673;DHT22;41723;49.326;8.430;2024-01-15T10:28:00;0.60;99.90
43673;DHT22;41723;49.326;8.430;2024-01-15T10:30:26;0.60;99.90
43673;DHT22;41723;49.326;8.430;2024-01-15T10:33:02;0.60;99.90
43673;DHT22;41723;49.326;8.430;2024-01-15T10:37:54;0.70;99.90
43673;DHT22;41723;49.326;8.430;2024-01-15T10:40:20;0.70;99.90
43673;DHT22;41723;49.326;8.430;2024-01-15T10:42:45;0.70;99.90
43673;DHT22;41723;49.326;8.430;2024-01-15T10:45:13;0.80;99.90
43673;DHT22;41723;49.326;8.430;2024-01-15T10:47:39;0.90;99.90
43673;DHT22;41723;49.326;8.430;2024-01-15T10:50:05;0.90;99.90
43673;DHT22;41723;49.326;8.430;2024-01-15T10:52:33;0.90;99.90
43673;DHT22;41723;49.326;8.430;2024-01-15T10:54:59;0.90;99.90
43673;DHT22;41723;49.326;8.430;2024-01-15T10:57:25;1.00;99.90
43673;DHT22;41723;49.326;8.430;2024-01-15T10:59:51;1.00;99.90
43673;DHT22;41723;49.326;8.430;2024-01-15T11:02:17;1.10;99.90
43673;DHT22;41723;49.326;8.430;2024-01-15T11:04:42;1.20;99.90
43673;DHT22;41723;49.326;8.430;2024-01-15T11:07:08;1.20;99.90
43673;DHT22;41723;49.326;8.430;2024-01-15T11:09:37;1.10;99.90
43673;DHT22;41723;49.326;8.430;2024-01-15T11:12:12;1.20;99.90
43673;DHT22;41723;49.326;8.430;2024-01-15T11:14:38;1.20;99.90
43673;DHT22;41723;49.326;8.430;2024-01-15T11:17:04;1.10;99.90
43673;DHT22;41723;49.326;8.430;2024-01-15T11:19:37;1.10;99.90
43673;DHT22;41723;49.326;8.430;2024-01-15T11:22:06;1.10;99.90
43673;DHT22;41723;49.326;8.430;2024-01-15T11:24:38;1.10;99.90
43673;DHT22;41723;49.326;8.430;2024-01-15T11:27:04;1.10;99.90
43673;DHT22;41723;49.326;8.430;2024-01-15T11:29:31;1.10;99.90
43673;DHT22;41723;49.326;8.430;2024-01-15T11:31:59;1.10;99.90
43673;DHT22;41723;49.326;8.430;2024-01-15T11:34:49;1.20;99.90
43673;DHT22;41723;49.326;8.430;2024-01-15T11:37:11;1.20;99.90
43673;DHT22;41723;49.326;8.430;2024-01-15T11:39:42;1.20;99.90
43673;DHT22;41723;49.326;8.430;2024-01-15T11:42:09;1.30;99.90
43673;DHT22;41723;49.326;8.430;2024-01-15T11:44:36;1.30;99.90
43673;DHT22;41723;49.326;8.430;2024-01-15T11:47:03;1.30;99.90
43673;DHT22;41723;49.326;8.430;2024-01-15T11:52:15;1.30;99.90
43673;DHT22;41723;49.326;8.430;2024-01-15T11:54:42;1.50;99.90
43673;DHT22;41723;49.326;8.430;2024-01-15T11:57:15;1.40;99.90
43673;DHT22;41723;49.326;8.430;2024-01-15T11:59:44;1.40;99.90
43673;DHT22;41723;49.326;8.430;2024-01-15T12:02:10;1.40;99.90
43673;DHT22;41723;49.326;8.430;2024-01-15T12:04:38;1.40;99.90
43673;DHT22;41723;49.326;8.430;2024-01-15T12:07:05;1.50;99.90
43673;DHT22;41723;49.326;8.430;2024-01-15T12:09:30;1.60;99.90
43673;DHT22;41723;49.326;8.430;2024-01-15T12:11:59;1.60;99.90
43673;DHT22;41723;49.326;8.430;2024-01-15T12:14:31;1.60;99.90
43673;DHT22;41723;49.326;8.430;2024-01-15T12:16:57;1.70;99.90
43673;DHT22;41723;49.326;8.430;2024-01-15T12:19:22;1.80;99.90
43673;DHT22;41723;49.326;8.430;2024-01-15T12:21:50;1.70;99.90
43673;DHT22;41723;49.326;8.430;2024-01-15T12:24:16;1.90;99.90
43673;DHT22;41723;49.326;8.430;2024-01-15T12:26:42;2.00;99.90
43673;DHT22;41723;49.326;8.430;2024-01-15T12:29:07;2.00;99.90
43673;DHT22;41723;49.326;8.430;2024-01-15T12:31:34;2.00;99.90
43673;DHT22;41723;49.326;8.430;2024-01-15T12:34:01;2.00;99.90
43673;DHT22;41723;49.326;8.430;2024-01-15T12:36:30;2.10;99.90
43673;DHT22;41723;49.326;8.430;2024-01-15T12:38:58;2.20;99.90
43673;DHT22;41723;49.326;8.430;2024-01-15T12:41:24;2.40;99.90
43673;DHT22;41723;49.326;8.430;2024-01-15T12:43:49;2.40;99.90
43673;DHT22;41723;49.326;8.430;2024-01-15T12:46:15;2.60;99.90
43673;DHT22;41723;49.326;8.430;2024-01-15T12:48:41;2.50;99.90
43673;DHT22;41723;49.326;8.430;2024-01-15T12:51:07;2.50;99.90
43673;DHT22;41723;49.326;8.430;2024-01-15T12:53:33;2.60;99.90
43673;DHT22;41723;49.326;8.430;2024-01-15T12:55:58;2.70;99.90
43673;DHT22;41723;49.326;8.430;2024-01-15T12:58:24;2.70;99.90
43673;DHT22;41723;49.326;8.430;2024-01-15T13:00:49;2.70;99.90
43673;DHT22;41723;49.326;8.430;2024-01-15T13:03:15;2.60;99.90
43673;DHT22;41723;49.326;8.430;2024-01-15T13:05:41;2.70;99.90
43673;DHT22;41723;49.326;8.430;2024-01-15T13:08:07;2.60;99.90
43673;DHT22;41723;49.326;8.430;2024-01-15T13:10:32;2.70;99.90
43673;DHT22;41723;49.326;8.430;2024-01-15T13:12:58;2.70;99.90
43673;DHT22;41723;49.326;8.430;2024-01-15T13:15:24;2.60;99.90
43673;DHT22;41723;49.326;8.430;2024-01-15T13:17:49;2.40;99.90
43673;DHT22;41723;49.326;8.430;2024-01-15T13:20:15;2.40;99.90
43673;DHT22;41723;49.326;8.430;2024-01-15T13:22:41;2.50;99.90
43673;DHT22;41723;49.326;8.430;2024-01-15T13:25:09;2.50;99.90
43673;DHT22;41723;49.326;8.430;2024-01-15T13:27:34;2.50;99.90
43673;DHT22;41723;49.326;8.430;2024-01-15T13:30:03;2.40;99.90
43673;DHT22;41723;49.326;8.430;2024-01-15T13:32:29;2.50;99.90
43673;DHT22;41723;49.326;8.430;2024-01-15T13:34:55;2.80;99.90
43673;DHT22;41723;49.326;8.430;2024-01-15T13:37:21;2.80;99.90
43673;DHT22;41723;49.326;8.430;2024-01-15T13:39:50;2.80;99.90
43673;DHT22;41723;49.326;8.430;2024-01-15T13:42:17;2.70;99.90
43673;DHT22;41723;49.326;8.430;2024-01-15T13:44:43;2.60;99.90
43673;DHT22;41723;49.326;8.430;2024-01-15T13:47:08;2.60;99.90
43673;DHT22;41723;49.326;8.430;2024-01-15T13:49:34;2.70;99.90
43673;DHT22;41723;49.326;8.430;2024-01-15T13:52:02;2.60;99.90
43673;DHT22;41723;49.326;8.430;2024-01-15T13:54:29;2.60;99.90
43673;DHT22;41723;49.326;8.430;2024-01-15T13:56:55;2.60;99.90
43673;DHT22;41723;49.326;8.430;2024-01-15T13:59:21;2.60;99.90
43673;DHT22;41723;49.326;8.430;2024-01-15T14:01:48;2.70;99.90
43673;DHT22;41723;49.326;8.430;2024-01-15T14:04:13;2.70;99.90
43673;DHT22;41723;49.326;8.430;2024-01-15T14:06:39;2.70;99.90
43673;DHT22;41723;49.326;8.430;2024-01-15T14:09:05;2.80;99.90
43673;DHT22;41723;49.326;8.430;2024-01-15T14:11:30;2.70;99.90
43673;DHT22;41723;49.326;8.430;2024-01-15T14:13:56;2.80;99.90
43673;DHT22;41723;49.326;8.430;2024-01-15T14:16:22;2.70;99.90
43673;DHT22;41723;49.326;8.430;2024-01-15T14:18:47;2.60;99.90
43673;DHT22;41723;49.326;8.430;2024-01-15T14:21:15;2.70;99.90
43673;DHT22;41723;49.326;8.430;2024-01-15T14:23:41;2.70;99.90
43673;DHT22;41723;49.326;8.430;2024-01-15T14:26:06;2.70;99.90
43673;DHT22;41723;49.326;8.430;2024-01-15T14:28:32;2.70;99.90
43673;DHT22;41723;49.326;8.430;2024-01-15T14:30:58;2.80;99.90
43673;DHT22;41723;49.326;8.430;2024-01-15T14:33:26;2.70;99.90
43673;DHT22;41723;49.326;8.430;2024-01-15T14:35:52;2.70;99.90
43673;DHT22;41723;49.326;8.430;2024-01-15T14:38:17;2.70;99.90
43673;DHT22;41723;49.326;8.430;2024-01-15T14:40:43;2.70;99.90
43673;DHT22;41723;49.326;8.430;2024-01-15T14:43:09;2.60;99.90
43673;DHT22;41723;49.326;8.430;2024-01-15T14:45:35;2.60;99.90
43673;DHT22;41723;49.326;8.430;2024-01-15T14:48:01;2.60;99.90
43673;DHT22;41723;49.326;8.430;2024-01-15T14:50:26;2.50;99.90
43673;DHT22;41723;49.326;8.430;2024-01-15T14:52:52;2.50;99.90
43673;DHT22;41723;49.326;8.430;2024-01-15T14:55:17;2.60;99.90
43673;DHT22;41723;49.326;8.430;2024-01-15T14:57:43;2.60;99.90
43673;DHT22;41723;49.326;8.430;2024-01-15T15:00:09;2.70;99.90
43673;DHT22;41723;49.326;8.430;2024-01-15T15:02:35;2.70;99.90
43673;DHT22;41723;49.326;8.430;2024-01-15T15:05:02;2.60;99.90
43673;DHT22;41723;49.326;8.430;2024-01-15T15:07:28;2.70;99.90
43673;DHT22;41723;49.326;8.430;2024-01-15T15:09:53;2.70;99.90
43673;DHT22;41723;49.326;8.430;2024-01-15T15:12:19;2.60;99.90
43673;DHT22;41723;49.326;8.430;2024-01-15T15:14:44;2.60;99.90
43673;DHT22;41723;49.326;8.430;2024-01-15T15:17:10;2.60;99.90
43673;DHT22;41723;49.326;8.430;2024-01-15T15:19:37;2.60;99.90
43673;DHT22;41723;49.326;8.430;2024-01-15T15:22:03;2.60;99.90
43673;DHT22;41723;49.326;8.430;2024-01-15T15:24:29;2.60;99.90
43673;DHT22;41723;49.326;8.430;2024-01-15T15:26:54;2.60;99.90
43673;DHT22;41723;49.326;8.430;2024-01-15T15:29:20;2.60;99.90
43673;DHT22;41723;49.326;8.430;2024-01-15T15:31:46;2.60;99.90
43673;DHT22;41723;49.326;8.430;2024-01-15T15:34:11;2.60;99.90
43673;DHT22;41723;49.326;8.430;2024-01-15T15:36:37;2.60;99.90